Time;durP1;ratioP1;P1;durP2;ratioP2;P2;SDS_P1;SDS_P2;PMS_P1;PMS_P2;Temp;Humidity;BMP_temperature;BMP_pressure;BME280_temperature;BME280_humidity;BME280_pressure;Samples;Min_cycle;Max_cycle;Signal;HPM_P1;HPM_P2
2023/05/14 00:00:53;;;;;;;9.27;3.37;;;23.00;78.90;;;;;;4968342;28;20457;-50
2023/05/14 00:03:19;;;;;;;22.03;4.40;;;23.00;79.10;;;;;;4969271;28;20473;-47
2023/05/14 00:05:46;;;;;;;10.80;5.07;;;23.00;79.30;;;;;;4969968;28;20445;-48
2023/05/14 00:08:12;;;;;;;4.83;3.57;;;23.00;79.40;;;;;;4957161;28;22300;-51
2023/05/14 00:10:39;;;;;;;10.40;4.47;;;23.00;79.50;;;;;;4961143;28;20465;-51
2023/05/14 00:13:06;;;;;;;11.40;4.50;;;23.00;79.50;;;;;;4958337;28;20472;-51
2023/05/14 00:15:34;;;;;;;4.57;3.50;;;23.00;79.60;;;;;;4966955;28;20469;-47
2023/05/14 00:18:00;;;;;;;6.03;3.67;;;23.00;79.60;;;;;;4958323;28;20458;-49
2023/05/14 00:20:27;;;;;;;17.90;4.90;;;23.00;79.70;;;;;;4969574;28;20488;-51
2023/05/14 00:22:54;;;;;;;9.37;3.83;;;23.00;79.70;;;;;;4965256;28;20477;-46
2023/05/14 00:25:20;;;;;;;5.20;3.70;;;22.90;79.70;;;;;;4967184;28;21053;-47
2023/05/14 00:27:47;;;;;;;10.67;4.37;;;22.90;79.70;;;;;;4963307;28;20469;-50
2023/05/14 00:30:14;;;;;;;11.03;4.47;;;22.90;79.80;;;;;;4966067;28;20482;-51
2023/05/14 00:32:42;;;;;;;7.80;4.00;;;22.90;79.80;;;;;;4965090;28;20464;-52
2023/05/14 00:35:09;;;;;;;12.93;4.83;;;22.90;79.80;;;;;;4969870;28;20485;-49
2023/05/14 00:37:36;;;;;;;6.03;3.83;;;22.90;80.00;;;;;;4964341;28;20513;-51
2023/05/14 00:40:05;;;;;;;10.67;4.10;;;22.90;80.00;;;;;;4966710;28;20457;-48
2023/05/14 00:42:32;;;;;;;10.43;4.10;;;22.90;80.10;;;;;;4967782;28;20472;-50
2023/05/14 00:44:58;;;;;;;8.00;4.10;;;22.90;80.10;;;;;;4968178;28;20961;-48
2023/05/14 00:47:25;;;;;;;10.57;3.93;;;22.90;80.10;;;;;;4966827;28;20469;-52
2023/05/14 00:49:53;;;;;;;8.50;3.43;;;22.90;80.20;;;;;;4963204;28;20472;-50
2023/05/14 00:52:20;;;;;;;11.30;4.50;;;22.90;80.20;;;;;;4966479;28;20965;-52
2023/05/14 00:54:48;;;;;;;10.60;4.27;;;22.90;80.30;;;;;;4966403;28;20488;-56
2023/05/14 00:57:15;;;;;;;9.73;4.37;;;22.90;80.40;;;;;;4959441;28;20474;-54
2023/05/14 00:59:42;;;;;;;5.93;3.83;;;22.80;80.30;;;;;;4957969;28;20472;-50
2023/05/14 01:02:08;;;;;;;9.80;4.00;;;22.80;80.40;;;;;;4964112;28;20465;-48
2023/05/14 01:04:36;;;;;;;6.00;3.50;;;22.80;80.50;;;;;;4970963;28;20972;-52
2023/05/14 01:07:12;;;;;;;8.87;4.30;;;22.80;80.50;;;;;;4964664;28;20958;-55
2023/05/14 01:09:44;;;;;;;7.77;3.50;;;22.80;80.60;;;;;;4964427;28;20461;-50
2023/05/14 01:12:19;;;;;;;6.17;3.37;;;22.80;80.70;;;;;;4965198;28;20461;-56
2023/05/14 01:14:54;;;;;;;12.87;4.00;;;22.80;80.60;;;;;;4970416;28;20491;-49
2023/05/14 01:17:22;;;;;;;10.73;3.60;;;22.80;80.70;;;;;;4969402;28;20805;-48
2023/05/14 01:19:51;;;;;;;7.00;3.87;;;22.80;80.90;;;;;;4968683;28;20490;-51
2023/05/14 01:22:19;;;;;;;7.97;3.60;;;22.80;80.90;;;;;;4971688;28;20503;-55
2023/05/14 01:24:46;;;;;;;8.43;3.70;;;22.70;80.90;;;;;;4966926;28;20462;-47
2023/05/14 01:27:16;;;;;;;11.03;4.10;;;22.70;81.00;;;;;;4970109;28;20466;-52
2023/05/14 01:29:51;;;;;;;9.13;3.93;;;22.70;81.00;;;;;;4968336;28;20466;-47
2023/05/14 01:32:22;;;;;;;9.07;4.30;;;22.70;81.00;;;;;;4968089;28;20468;-52
2023/05/14 01:34:49;;;;;;;8.80;4.60;;;22.70;81.10;;;;;;4969859;28;21084;-49
2023/05/14 01:37:17;;;;;;;13.33;4.10;;;22.70;81.10;;;;;;4968708;28;20485;-46
2023/05/14 01:39:45;;;;;;;16.93;4.20;;;22.70;81.10;;;;;;4965841;28;20462;-49
2023/05/14 01:42:13;;;;;;;6.50;4.20;;;22.70;81.10;;;;;;4970357;28;20472;-46
2023/05/14 01:44:39;;;;;;;9.70;3.70;;;22.70;81.20;;;;;;4968139;28;20472;-46
2023/05/14 01:47:06;;;;;;;8.40;3.57;;;22.70;81.20;;;;;;4968805;28;20489;-52
2023/05/14 01:49:33;;;;;;;9.30;3.80;;;22.70;81.30;;;;;;4969090;28;20477;-48
2023/05/14 01:51:59;;;;;;;6.83;3.37;;;22.60;81.20;;;;;;4964542;28;20477;-52
2023/05/14 01:54:26;;;;;;;8.00;3.83;;;22.70;81.40;;;;;;4969346;28;20492;-50
2023/05/14 01:56:54;;;;;;;9.67;3.80;;;22.60;81.20;;;;;;4968911;28;20462;-50
2023/05/14 01:59:21;;;;;;;7.67;4.20;;;22.60;81.30;;;;;;4969320;28;20462;-50
2023/05/14 02:01:47;;;;;;;6.47;3.73;;;22.60;81.40;;;;;;4963891;28;20469;-50
2023/05/14 02:04:14;;;;;;;7.13;3.27;;;22.60;81.40;;;;;;4970658;28;20472;-48
2023/05/14 02:06:41;;;;;;;4.50;3.33;;;22.60;81.40;;;;;;4965348;28;20469;-52
2023/05/14 02:09:07;;;;;;;5.23;3.77;;;22.60;81.50;;;;;;4967136;28;20488;-48
2023/05/14 02:11:34;;;;;;;7.50;3.90;;;22.60;81.50;;;;;;4969962;28;20465;-52
2023/05/14 02:14:02;;;;;;;5.00;3.30;;;22.60;81.60;;;;;;4966648;28;20487;-49
2023/05/14 02:16:28;;;;;;;4.20;3.70;;;22.60;81.50;;;;;;4969559;28;20928;-52
2023/05/14 02:18:55;;;;;;;8.20;4.00;;;22.60;81.60;;;;;;4972070;28;20988;-49
2023/05/14 02:21:22;;;;;;;3.73;3.00;;;22.60;81.60;;;;;;4968742;28;20492;-49
2023/05/14 02:23:49;;;;;;;10.53;3.53;;;22.50;81.60;;;;;;4970407;28;20561;-50
2023/05/14 02:26:15;;;;;;;3.27;2.90;;;22.50;82.00;;;;;;4970923;28;20945;-48
2023/05/14 02:28:42;;;;;;;5.60;3.27;;;22.50;81.50;;;;;;4967903;28;20469;-52
2023/05/14 02:31:10;;;;;;;5.80;2.80;;;22.50;81.40;;;;;;4966223;28;20466;-49
2023/05/14 02:33:36;;;;;;;4.87;3.10;;;22.50;81.80;;;;;;4970453;28;20469;-49
2023/05/14 02:36:03;;;;;;;5.53;3.37;;;22.50;81.70;;;;;;4970613;28;20493;-47
2023/05/14 02:38:30;;;;;;;11.57;3.63;;;22.50;81.70;;;;;;4964193;28;20462;-50
2023/05/14 02:40:57;;;;;;;4.77;3.90;;;22.50;81.80;;;;;;4967939;28;20457;-51
2023/05/14 02:43:23;;;;;;;5.70;3.60;;;22.50;81.90;;;;;;4968109;28;20470;-49
2023/05/14 02:45:50;;;;;;;10.10;3.60;;;22.50;82.00;;;;;;4958479;28;20469;-50
2023/05/14 02:48:18;;;;;;;6.43;3.27;;;22.40;81.80;;;;;;4966776;28;20460;-50
2023/05/14 02:50:45;;;;;;;8.57;3.20;;;22.40;81.90;;;;;;4964124;28;20799;-53
2023/05/14 02:53:11;;;;;;;9.63;3.47;;;22.40;82.00;;;;;;4968865;28;20465;-53
2023/05/14 02:55:38;;;;;;;4.43;3.37;;;22.40;82.00;;;;;;4967684;28;20474;-48
2023/05/14 02:58:04;;;;;;;7.80;3.77;;;22.40;82.10;;;;;;4968531;28;20464;-50
2023/05/14 03:00:31;;;;;;;6.47;3.50;;;22.40;82.20;;;;;;4965905;28;20465;-53
2023/05/14 03:02:58;;;;;;;4.60;2.90;;;22.40;82.20;;;;;;4967869;28;20461;-49
2023/05/14 03:05:26;;;;;;;5.27;3.10;;;22.40;82.20;;;;;;4962736;28;20457;-55
2023/05/14 03:07:53;;;;;;;4.20;3.30;;;22.40;82.20;;;;;;4968320;28;20457;-53
2023/05/14 03:10:20;;;;;;;4.23;3.50;;;22.40;82.30;;;;;;4970308;28;20458;-52
2023/05/14 03:12:47;;;;;;;12.13;3.53;;;22.40;82.50;;;;;;4963500;28;20461;-53
2023/05/14 03:15:13;;;;;;;5.70;3.53;;;22.40;82.50;;;;;;4970567;28;20785;-49
2023/05/14 03:17:40;;;;;;;4.50;2.97;;;22.30;82.40;;;;;;4966651;28;20544;-55
2023/05/14 03:20:07;;;;;;;6.80;3.90;;;22.30;82.40;;;;;;4969080;28;20450;-52
2023/05/14 03:22:36;;;;;;;5.50;3.03;;;22.30;82.50;;;;;;4967542;28;20519;-54
2023/05/14 03:25:02;;;;;;;6.43;3.23;;;22.30;82.60;;;;;;4959415;28;20477;-50
2023/05/14 03:27:29;;;;;;;4.40;2.47;;;22.30;82.70;;;;;;4966474;28;21206;-52
2023/05/14 03:29:56;;;;;;;4.20;2.77;;;22.30;82.60;;;;;;4967290;28;20461;-54
2023/05/14 03:32:22;;;;;;;3.50;3.20;;;22.30;82.80;;;;;;4966377;28;20469;-48
2023/05/14 03:34:49;;;;;;;6.20;4.07;;;22.30;82.80;;;;;;4969597;28;20857;-48
2023/05/14 03:37:16;;;;;;;4.23;3.47;;;22.30;83.60;;;;;;4965499;28;20875;-53
2023/05/14 03:39:44;;;;;;;5.67;3.10;;;22.30;82.90;;;;;;4968230;28;20464;-52
2023/05/14 03:42:10;;;;;;;4.83;3.20;;;22.30;82.90;;;;;;4966528;28;20981;-50
2023/05/14 03:44:37;;;;;;;6.03;3.53;;;22.30;83.00;;;;;;4969328;28;20861;-51
2023/05/14 03:47:04;;;;;;;4.27;3.00;;;22.30;83.10;;;;;;4968670;28;20458;-49
2023/05/14 03:49:31;;;;;;;3.10;2.80;;;22.30;83.20;;;;;;4969226;28;20473;-50
2023/05/14 03:51:58;;;;;;;8.60;3.67;;;22.30;83.20;;;;;;4967445;28;20474;-53
2023/05/14 03:54:24;;;;;;;4.90;3.60;;;22.30;83.20;;;;;;4963524;28;20528;-48
2023/05/14 03:56:52;;;;;;;6.40;3.40;;;22.30;83.30;;;;;;4962106;28;20469;-54
2023/05/14 03:59:19;;;;;;;3.23;2.70;;;22.20;83.30;;;;;;4967073;28;20469;-52
2023/05/14 04:01:46;;;;;;;4.07;3.67;;;22.20;83.40;;;;;;4964395;28;20640;-49
2023/05/14 04:04:12;;;;;;;4.33;3.10;;;22.20;83.40;;;;;;4969232;28;20469;-55
2023/05/14 04:06:39;;;;;;;5.17;3.17;;;22.20;83.40;;;;;;4967842;28;20469;-57
2023/05/14 04:09:05;;;;;;;3.20;2.73;;;22.20;83.40;;;;;;4967636;28;20469;-49
2023/05/14 04:11:32;;;;;;;4.40;3.33;;;22.20;83.50;;;;;;4969590;28;20469;-49
2023/05/14 04:14:00;;;;;;;5.30;3.10;;;22.20;83.60;;;;;;4965318;28;20465;-50
2023/05/14 04:16:27;;;;;;;2.90;2.60;;;22.20;83.70;;;;;;4966344;28;20488;-49
2023/05/14 04:18:53;;;;;;;7.77;2.87;;;22.20;83.60;;;;;;4969057;28;20205;-48
2023/05/14 04:21:20;;;;;;;3.60;3.20;;;22.20;83.80;;;;;;4969265;28;20472;-47
2023/05/14 04:23:47;;;;;;;4.73;2.90;;;22.20;83.80;;;;;;4966939;28;20473;-49
2023/05/14 04:26:13;;;;;;;4.83;2.60;;;22.20;84.00;;;;;;4967204;28;20826;-54
2023/05/14 04:28:40;;;;;;;3.30;2.90;;;22.20;84.00;;;;;;4964314;28;20465;-50
2023/05/14 04:31:08;;;;;;;7.20;3.90;;;22.20;84.00;;;;;;4961252;28;20497;-48
2023/05/14 04:33:34;;;;;;;5.13;3.50;;;22.20;83.90;;;;;;4966933;28;20476;-56
2023/05/14 04:36:01;;;;;;;3.97;2.83;;;22.20;84.10;;;;;;4971795;28;20488;-53
2023/05/14 04:38:28;;;;;;;10.73;3.53;;;22.20;84.10;;;;;;4966108;28;20476;-50
2023/05/14 04:40:54;;;;;;;5.10;3.30;;;22.20;84.20;;;;;;4973984;28;20473;-50
2023/05/14 04:43:21;;;;;;;4.33;3.03;;;22.10;84.20;;;;;;4968539;28;20946;-55
2023/05/14 04:45:48;;;;;;;3.73;3.10;;;22.10;84.30;;;;;;4967850;28;20453;-51
2023/05/14 04:48:16;;;;;;;4.53;2.60;;;22.10;84.20;;;;;;4966693;28;20466;-48
2023/05/14 04:50:43;;;;;;;3.50;3.13;;;22.10;84.20;;;;;;4967655;28;20548;-51
2023/05/14 04:53:09;;;;;;;8.00;3.40;;;22.10;84.30;;;;;;4972697;28;20853;-49
2023/05/14 04:55:36;;;;;;;4.70;3.50;;;22.10;84.40;;;;;;4967742;28;20489;-52
2023/05/14 04:58:03;;;;;;;5.47;3.30;;;22.10;84.40;;;;;;4972243;28;20492;-52
2023/05/14 05:00:29;;;;;;;2.77;2.57;;;22.10;84.40;;;;;;4965542;28;20468;-54
2023/05/14 05:02:56;;;;;;;4.50;3.40;;;22.10;84.50;;;;;;4968915;28;20461;-47
2023/05/14 05:05:24;;;;;;;4.93;2.90;;;22.00;84.50;;;;;;4969502;28;20799;-47
2023/05/14 05:07:51;;;;;;;3.57;2.60;;;22.10;84.60;;;;;;4971012;28;20489;-50
2023/05/14 05:10:18;;;;;;;3.20;2.93;;;22.10;84.70;;;;;;4962615;28;20507;-55
2023/05/14 05:12:44;;;;;;;3.07;2.83;;;22.10;84.70;;;;;;4971996;28;20464;-49
2023/05/14 05:15:11;;;;;;;3.70;2.77;;;22.10;84.80;;;;;;4966391;28;20575;-51
2023/05/14 05:17:38;;;;;;;3.15;2.55;;;22.10;84.90;;;;;;4967011;28;20461;-57
2023/05/14 05:20:08;;;;;;;3.10;2.63;;;22.00;84.80;;;;;;4967152;28;20217;-47
2023/05/14 05:22:36;;;;;;;4.13;2.20;;;22.10;85.00;;;;;;4968871;28;20442;-59
2023/05/14 05:25:05;;;;;;;3.67;2.80;;;22.10;85.40;;;;;;4964362;28;20595;-52
2023/05/14 05:27:31;;;;;;;3.50;2.90;;;22.10;85.40;;;;;;4970425;28;20541;-51
2023/05/14 05:29:58;;;;;;;3.47;2.50;;;22.10;85.50;;;;;;4964219;28;20489;-49
2023/05/14 05:32:25;;;;;;;3.53;2.40;;;22.20;85.70;;;;;;4966852;28;20466;-48
2023/05/14 05:34:52;;;;;;;4.40;2.60;;;22.10;85.60;;;;;;4967462;28;20932;-54
2023/05/14 05:37:18;;;;;;;2.43;2.23;;;22.20;85.80;;;;;;4969375;28;20477;-54
2023/05/14 05:39:47;;;;;;;2.90;2.70;;;22.20;85.10;;;;;;4966001;28;20462;-50
2023/05/14 05:42:14;;;;;;;9.70;3.10;;;22.20;84.30;;;;;;4970979;28;20549;-47
2023/05/14 05:44:40;;;;;;;4.60;3.17;;;22.20;84.70;;;;;;4969494;28;20485;-49
2023/05/14 05:47:07;;;;;;;5.77;3.10;;;22.20;85.00;;;;;;4969384;28;20496;-53
2023/05/14 05:49:35;;;;;;;6.53;3.07;;;22.20;85.10;;;;;;4967760;28;20469;-49
2023/05/14 05:52:02;;;;;;;3.13;2.80;;;22.20;85.10;;;;;;4967058;28;20829;-50
2023/05/14 05:54:31;;;;;;;11.30;3.40;;;22.30;85.40;;;;;;4965294;28;20473;-49
2023/05/14 05:56:59;;;;;;;8.20;2.87;;;22.30;85.20;;;;;;4969438;28;20956;-48
2023/05/14 05:59:26;;;;;;;3.20;2.43;;;22.30;85.20;;;;;;4971764;28;20488;-46
2023/05/14 06:01:53;;;;;;;2.63;2.40;;;22.30;85.20;;;;;;4968383;28;20984;-52
2023/05/14 06:04:20;;;;;;;3.70;2.60;;;22.30;85.20;;;;;;4972566;28;20454;-52
2023/05/14 06:06:46;;;;;;;4.60;2.87;;;22.30;85.20;;;;;;4969850;28;20497;-54
2023/05/14 06:09:13;;;;;;;4.37;2.90;;;22.30;85.10;;;;;;4968493;28;20461;-53
2023/05/14 06:11:40;;;;;;;12.63;2.63;;;22.30;85.20;;;;;;4960895;28;20984;-50
2023/05/14 06:14:08;;;;;;;4.77;2.70;;;22.40;85.30;;;;;;4960684;28;20464;-52
2023/05/14 06:16:34;;;;;;;4.50;2.87;;;22.40;85.30;;;;;;4967735;28;20965;-53
2023/05/14 06:19:01;;;;;;;3.20;2.90;;;22.40;85.20;;;;;;4967868;28;20446;-48
2023/05/14 06:21:28;;;;;;;3.50;2.53;;;22.40;85.10;;;;;;4967935;28;20461;-53
2023/05/14 06:23:54;;;;;;;4.63;3.20;;;22.40;85.10;;;;;;4969464;28;20457;-51
2023/05/14 06:26:21;;;;;;;4.40;2.73;;;22.40;85.00;;;;;;4967722;28;20472;-48
2023/05/14 06:28:47;;;;;;;4.17;2.20;;;22.40;85.10;;;;;;4966539;28;20458;-51
2023/05/14 06:31:15;;;;;;;3.30;2.67;;;22.40;85.00;;;;;;4970807;28;20464;-48
2023/05/14 06:33:42;;;;;;;4.60;3.00;;;22.40;85.10;;;;;;4965480;28;20473;-48
2023/05/14 06:36:09;;;;;;;4.00;3.30;;;22.40;85.00;;;;;;4967735;28;20478;-50
2023/05/14 06:38:36;;;;;;;3.20;2.27;;;22.40;85.00;;;;;;4967947;28;20508;-51
2023/05/14 06:41:03;;;;;;;5.57;2.80;;;22.40;85.00;;;;;;4970317;28;20825;-54
2023/05/14 06:43:30;;;;;;;4.60;2.33;;;22.40;85.00;;;;;;4967446;28;20855;-53
2023/05/14 06:45:56;;;;;;;4.50;2.60;;;22.40;85.00;;;;;;4965436;28;20466;-51
2023/05/14 06:48:26;;;;;;;3.80;2.60;;;22.40;84.90;;;;;;4967739;28;20465;-52
2023/05/14 06:50:53;;;;;;;5.50;2.73;;;22.40;85.00;;;;;;4968651;28;20465;-51
2023/05/14 06:53:19;;;;;;;4.07;2.57;;;22.40;85.10;;;;;;4967476;28;20471;-48
2023/05/14 06:55:47;;;;;;;8.63;2.40;;;22.40;85.00;;;;;;4966001;28;20622;-49
2023/05/14 06:58:14;;;;;;;4.20;2.97;;;22.40;85.10;;;;;;4964673;28;20843;-49
2023/05/14 07:00:40;;;;;;;2.33;2.10;;;22.40;85.00;;;;;;4959381;28;20457;-48
2023/05/14 07:03:07;;;;;;;3.17;2.30;;;22.40;85.00;;;;;;4966895;28;20459;-48
2023/05/14 07:05:35;;;;;;;3.10;2.80;;;22.40;85.10;;;;;;4967714;28;20473;-48
2023/05/14 07:08:02;;;;;;;2.60;2.40;;;22.40;85.10;;;;;;4969619;28;20860;-48
2023/05/14 07:10:29;;;;;;;2.23;2.03;;;22.40;85.20;;;;;;4963068;28;21254;-50
2023/05/14 07:12:56;;;;;;;3.33;1.97;;;22.40;85.30;;;;;;4968854;28;20461;-47
2023/05/14 07:15:23;;;;;;;3.90;2.10;;;22.40;85.30;;;;;;4968350;28;20461;-48
2023/05/14 07:17:49;;;;;;;5.50;2.37;;;22.40;85.40;;;;;;4966676;28;20473;-51
2023/05/14 07:20:16;;;;;;;5.80;2.87;;;22.40;85.40;;;;;;4962684;28;20462;-51
2023/05/14 07:22:44;;;;;;;14.53;4.03;;;22.40;85.80;;;;;;4969406;28;20449;-51
2023/05/14 07:25:10;;;;;;;4.87;2.70;;;22.50;86.00;;;;;;4967750;28;20898;-52
2023/05/14 07:27:37;;;;;;;11.60;3.53;;;22.50;86.70;;;;;;4970552;28;20480;-54
2023/05/14 07:30:04;;;;;;;4.80;2.50;;;22.40;85.10;;;;;;4966635;28;20473;-48
2023/05/14 07:32:31;;;;;;;2.60;2.40;;;22.40;84.60;;;;;;4970178;28;20449;-49
2023/05/14 07:34:57;;;;;;;3.00;1.93;;;22.40;84.40;;;;;;4966444;28;20476;-49
2023/05/14 07:37:25;;;;;;;2.50;2.30;;;22.30;84.80;;;;;;4964217;28;20509;-48
2023/05/14 07:39:53;;;;;;;3.00;2.70;;;22.30;84.00;;;;;;4965090;28;20567;-48
2023/05/14 07:42:20;;;;;;;7.80;3.10;;;22.30;84.00;;;;;;4970173;28;20469;-48
2023/05/14 07:44:47;;;;;;;6.90;3.03;;;22.20;84.00;;;;;;4964902;28;21133;-50
2023/05/14 07:47:13;;;;;;;3.60;2.97;;;22.20;84.00;;;;;;4965798;28;20461;-51
2023/05/14 07:49:40;;;;;;;4.33;3.07;;;22.20;84.00;;;;;;4962099;28;20829;-47
2023/05/14 07:52:06;;;;;;;4.60;3.30;;;22.20;84.10;;;;;;4963009;28;20501;-47
2023/05/14 07:54:33;;;;;;;3.03;2.70;;;22.20;84.30;;;;;;4963856;28;20477;-47
2023/05/14 07:57:01;;;;;;;6.53;2.50;;;22.20;84.50;;;;;;4966155;28;20490;-48
2023/05/14 07:59:28;;;;;;;4.90;2.40;;;22.20;84.30;;;;;;4962092;28;20825;-48
2023/05/14 08:01:54;;;;;;;6.20;2.90;;;22.20;84.50;;;;;;4956788;28;20462;-48
2023/05/14 08:04:22;;;;;;;2.40;2.20;;;22.20;84.70;;;;;;4967071;28;20469;-48
2023/05/14 08:06:49;;;;;;;4.10;2.90;;;22.20;84.50;;;;;;4966000;28;20904;-49
2023/05/14 08:09:15;;;;;;;3.37;2.50;;;22.20;84.30;;;;;;4961240;28;20800;-49
2023/05/14 08:11:42;;;;;;;4.87;2.80;;;22.20;84.20;;;;;;4965882;28;20473;-48
2023/05/14 08:14:10;;;;;;;6.10;3.40;;;22.20;84.10;;;;;;4968770;28;20462;-49
2023/05/14 08:16:37;;;;;;;4.27;2.17;;;22.20;84.10;;;;;;4961257;28;20481;-52
2023/05/14 08:19:04;;;;;;;2.60;2.40;;;22.20;84.10;;;;;;4968424;28;20512;-53
2023/05/14 08:21:31;;;;;;;5.83;2.80;;;22.20;83.90;;;;;;4965488;28;20469;-50
2023/05/14 08:23:58;;;;;;;5.07;2.60;;;22.20;84.00;;;;;;4967079;28;20908;-52
2023/05/14 08:26:24;;;;;;;2.17;1.97;;;22.20;83.90;;;;;;4960105;28;20466;-49
2023/05/14 08:28:52;;;;;;;4.13;2.63;;;22.20;83.70;;;;;;4965419;28;20466;-48
2023/05/14 08:31:20;;;;;;;4.30;2.43;;;22.20;83.60;;;;;;4962721;28;20458;-48
2023/05/14 08:33:47;;;;;;;4.03;2.30;;;22.20;83.50;;;;;;4967568;28;20473;-52
2023/05/14 08:36:13;;;;;;;6.33;2.50;;;22.20;84.20;;;;;;4962304;28;20552;-49
2023/05/14 08:38:41;;;;;;;3.33;2.30;;;22.20;83.40;;;;;;4968328;28;20842;-53
2023/05/14 08:41:10;;;;;;;5.23;2.67;;;22.20;83.40;;;;;;4963513;28;20861;-50
2023/05/14 08:43:44;;;;;;;4.03;2.53;;;22.20;83.40;;;;;;4963052;28;20544;-48
2023/05/14 08:46:14;;;;;;;4.23;2.80;;;22.20;83.40;;;;;;4964433;28;20500;-49
2023/05/14 08:48:43;;;;;;;3.20;2.10;;;22.30;84.30;;;;;;4968337;28;20461;-51
2023/05/14 08:51:09;;;;;;;5.43;2.83;;;22.30;84.60;;;;;;4960568;28;20980;-51
2023/05/14 08:53:39;;;;;;;2.67;2.47;;;22.30;84.70;;;;;;4962957;28;20495;-51
2023/05/14 08:56:07;;;;;;;2.83;2.57;;;22.30;84.80;;;;;;4951207;28;20472;-54
2023/05/14 08:58:34;;;;;;;2.77;2.47;;;22.30;84.90;;;;;;4963172;28;20463;-50
2023/05/14 09:01:01;;;;;;;3.63;2.90;;;22.20;84.90;;;;;;4962007;28;20830;-49
2023/05/14 09:03:28;;;;;;;3.80;2.60;;;22.30;85.80;;;;;;4963267;28;21309;-51
2023/05/14 09:05:57;;;;;;;3.17;2.90;;;22.30;85.80;;;;;;4964404;28;20891;-53
2023/05/14 09:08:24;;;;;;;2.70;2.50;;;22.30;85.10;;;;;;4954765;28;20457;-52
2023/05/14 09:10:51;;;;;;;3.10;2.20;;;22.30;85.00;;;;;;4961469;28;20465;-49
2023/05/14 09:13:18;;;;;;;2.63;2.37;;;22.30;85.00;;;;;;4966832;28;20834;-52
2023/05/14 09:15:46;;;;;;;2.70;2.50;;;22.30;85.00;;;;;;4966137;28;20462;-55
2023/05/14 09:18:12;;;;;;;2.87;2.40;;;22.30;85.00;;;;;;4966700;28;20837;-53
2023/05/14 09:20:39;;;;;;;3.03;2.40;;;22.20;84.80;;;;;;4964254;28;20875;-55
2023/05/14 09:23:07;;;;;;;3.30;3.00;;;22.30;84.90;;;;;;4971971;28;20476;-50
2023/05/14 09:25:34;;;;;;;2.50;2.30;;;22.30;85.00;;;;;;4968725;28;20462;-53
2023/05/14 09:28:06;;;;;;;3.30;2.43;;;22.30;85.00;;;;;;4964599;28;20470;-50
2023/05/14 09:30:33;;;;;;;4.40;2.70;;;22.30;85.00;;;;;;4969330;28;20508;-50
2023/05/14 09:33:00;;;;;;;3.20;2.90;;;22.30;84.90;;;;;;4969942;28;20890;-51
2023/05/14 09:35:27;;;;;;;2.57;2.37;;;22.30;84.90;;;;;;4964710;28;20457;-52
2023/05/14 09:37:54;;;;;;;2.10;1.83;;;22.30;84.80;;;;;;4969660;28;20499;-50
2023/05/14 09:40:23;;;;;;;2.73;2.40;;;22.30;84.80;;;;;;4967863;28;20993;-49
2023/05/14 09:42:50;;;;;;;4.07;2.20;;;22.30;84.60;;;;;;4967171;28;20996;-50
2023/05/14 09:45:17;;;;;;;2.60;2.40;;;22.30;84.70;;;;;;4965152;28;20973;-50
2023/05/14 09:47:44;;;;;;;2.63;2.33;;;22.30;84.90;;;;;;4969819;28;20477;-52
2023/05/14 09:50:11;;;;;;;2.63;2.43;;;22.30;85.00;;;;;;4969616;28;20925;-52
2023/05/14 09:52:38;;;;;;;2.23;1.90;;;22.30;85.00;;;;;;4963133;28;20469;-49
2023/05/14 09:55:06;;;;;;;3.23;2.13;;;22.30;85.10;;;;;;4961026;28;20458;-50
2023/05/14 09:57:34;;;;;;;3.30;2.60;;;22.30;85.30;;;;;;4965716;28;20481;-50
2023/05/14 10:00:01;;;;;;;4.10;2.50;;;22.40;85.30;;;;;;4965471;28;20962;-48
2023/05/14 10:02:36;;;;;;;4.00;2.20;;;22.30;84.90;;;;;;4967296;28;20705;-47
2023/05/14 10:05:04;;;;;;;2.70;2.50;;;22.30;84.90;;;;;;4965606;28;20465;-47
2023/05/14 10:07:35;;;;;;;2.80;2.43;;;22.30;85.00;;;;;;4967396;28;20464;-50
2023/05/14 10:10:07;;;;;;;2.53;2.33;;;22.30;85.00;;;;;;4962187;28;20463;-46
2023/05/14 10:12:38;;;;;;;2.53;2.33;;;22.30;85.00;;;;;;4967227;28;20461;-49
2023/05/14 10:15:12;;;;;;;2.63;2.07;;;22.30;85.00;;;;;;4965354;28;20473;-48
2023/05/14 10:17:44;;;;;;;2.80;2.50;;;22.30;84.60;;;;;;4966318;28;20822;-47
2023/05/14 10:20:16;;;;;;;4.80;1.90;;;22.30;84.30;;;;;;4969857;28;20481;-51
2023/05/14 10:22:43;;;;;;;2.70;2.47;;;22.30;83.90;;;;;;4961879;28;20453;-46
2023/05/14 10:25:10;;;;;;;3.83;2.50;;;22.30;83.50;;;;;;4966740;28;20465;-48
2023/05/14 10:27:39;;;;;;;2.53;2.33;;;22.30;82.80;;;;;;4964893;28;20528;-50
2023/05/14 10:30:11;;;;;;;3.50;2.40;;;22.30;82.40;;;;;;4957671;28;20466;-49
2023/05/14 10:32:40;;;;;;;3.23;2.50;;;22.30;82.80;;;;;;4955496;28;20548;-48
2023/05/14 10:35:16;;;;;;;3.90;2.50;;;22.20;83.00;;;;;;4967192;28;20458;-47
2023/05/14 10:37:45;;;;;;;2.50;2.30;;;22.30;83.40;;;;;;4966914;28;20489;-48
2023/05/14 10:40:12;;;;;;;2.50;1.70;;;22.30;83.60;;;;;;4964749;28;20548;-49
2023/05/14 10:42:42;;;;;;;3.90;2.03;;;22.30;83.60;;;;;;4963567;28;20551;-50
2023/05/14 10:45:10;;;;;;;4.10;2.30;;;22.30;83.90;;;;;;4964894;28;20547;-50
2023/05/14 10:47:38;;;;;;;2.37;2.17;;;22.30;83.70;;;;;;4963774;28;20473;-52
2023/05/14 10:50:07;;;;;;;3.70;2.40;;;22.30;84.00;;;;;;4968880;28;20472;-50
2023/05/14 10:52:35;;;;;;;2.77;2.37;;;22.30;84.00;;;;;;4967239;28;20465;-52
2023/05/14 10:55:06;;;;;;;2.83;2.03;;;22.30;83.90;;;;;;4968355;28;20472;-49
2023/05/14 10:57:35;;;;;;;3.30;2.43;;;22.30;83.80;;;;;;4966155;28;20497;-52
2023/05/14 11:00:06;;;;;;;2.90;2.70;;;22.30;83.90;;;;;;4966027;28;20462;-52
2023/05/14 11:02:35;;;;;;;3.83;2.43;;;22.30;83.90;;;;;;4963154;28;20465;-48
2023/05/14 11:05:04;;;;;;;2.30;2.10;;;22.30;83.90;;;;;;4961550;28;20556;-49
2023/05/14 11:07:32;;;;;;;2.40;2.20;;;22.30;83.80;;;;;;4965273;28;20984;-52
2023/05/14 11:10:04;;;;;;;2.57;2.00;;;22.30;83.80;;;;;;4967440;28;20473;-45
2023/05/14 11:12:32;;;;;;;1.73;1.63;;;22.30;83.70;;;;;;4967512;28;20611;-48
2023/05/14 11:15:00;;;;;;;2.73;2.20;;;22.30;83.60;;;;;;4963219;28;20469;-50
2023/05/14 11:17:30;;;;;;;2.93;1.97;;;22.30;83.50;;;;;;4968457;28;20555;-50
2023/05/14 11:19:57;;;;;;;8.60;2.13;;;22.30;83.50;;;;;;4964345;28;20972;-56
2023/05/14 11:22:24;;;;;;;2.00;1.80;;;22.30;83.40;;;;;;4967174;28;20466;-48
2023/05/14 11:24:51;;;;;;;2.83;2.63;;;22.30;83.40;;;;;;4967117;28;21019;-48
2023/05/14 11:27:19;;;;;;;2.30;2.00;;;22.30;83.30;;;;;;4964827;28;20473;-47
2023/05/14 11:29:46;;;;;;;2.10;2.00;;;22.30;83.30;;;;;;4967793;28;20493;-51
2023/05/14 11:32:14;;;;;;;8.63;4.07;;;22.30;83.20;;;;;;4966629;28;20457;-50
2023/05/14 11:34:44;;;;;;;3.30;1.90;;;22.30;83.20;;;;;;4962997;28;20453;-47
2023/05/14 11:37:12;;;;;;;2.60;2.40;;;22.30;83.00;;;;;;4965401;28;20481;-48
2023/05/14 11:39:45;;;;;;;2.40;2.20;;;22.30;82.90;;;;;;4969626;28;20469;-48
2023/05/14 11:42:13;;;;;;;3.23;2.30;;;22.30;82.50;;;;;;4966457;28;20473;-46
2023/05/14 11:44:43;;;;;;;9.33;2.20;;;22.30;81.70;;;;;;4967789;28;20461;-49
2023/05/14 11:47:10;;;;;;;2.93;1.97;;;22.30;81.60;;;;;;4969254;28;20466;-48
2023/05/14 11:49:37;;;;;;;3.07;1.90;;;22.20;80.30;;;;;;4961286;28;20473;-50
2023/05/14 11:52:07;;;;;;;1.87;1.77;;;22.20;79.40;;;;;;4954546;28;20471;-50
2023/05/14 11:54:35;;;;;;;3.10;2.17;;;22.20;78.50;;;;;;4960836;28;20572;-48
2023/05/14 11:57:07;;;;;;;7.70;1.93;;;22.20;78.70;;;;;;4963879;28;20458;-48
2023/05/14 11:59:34;;;;;;;4.47;2.17;;;22.20;79.00;;;;;;4962387;28;20930;-52
2023/05/14 12:02:02;;;;;;;11.87;2.90;;;22.20;79.20;;;;;;4969974;28;20465;-50
2023/05/14 12:04:30;;;;;;;3.13;1.90;;;22.20;79.30;;;;;;4963738;28;21020;-51
2023/05/14 12:06:58;;;;;;;3.83;2.37;;;22.20;78.90;;;;;;4967260;28;20472;-49
2023/05/14 12:09:27;;;;;;;5.73;2.50;;;22.20;78.40;;;;;;4963372;28;20473;-49
2023/05/14 12:11:53;;;;;;;3.53;2.03;;;22.20;78.60;;;;;;4968631;28;20461;-48
2023/05/14 12:14:22;;;;;;;7.63;2.47;;;22.20;78.10;;;;;;4961205;28;20469;-52
2023/05/14 12:16:50;;;;;;;2.30;2.10;;;22.20;77.30;;;;;;4965638;28;20469;-47
2023/05/14 12:19:18;;;;;;;4.80;2.07;;;22.20;78.10;;;;;;4965995;28;20457;-47
2023/05/14 12:21:46;;;;;;;5.13;2.17;;;22.20;77.30;;;;;;4963676;28;20462;-52
2023/05/14 12:24:13;;;;;;;1.83;1.73;;;22.20;77.60;;;;;;4963768;28;20462;-50
2023/05/14 12:26:44;;;;;;;3.17;2.80;;;22.20;77.80;;;;;;4965398;28;20463;-51
2023/05/14 12:29:13;;;;;;;2.00;1.80;;;22.10;78.00;;;;;;4967640;28;20468;-55
2023/05/14 12:31:45;;;;;;;3.70;2.00;;;22.20;78.10;;;;;;4960660;28;21090;-47
2023/05/14 12:34:12;;;;;;;2.53;2.20;;;22.20;77.60;;;;;;4965336;28;20544;-50
2023/05/14 12:36:38;;;;;;;2.63;2.03;;;22.20;77.10;;;;;;4968925;28;20489;-50
2023/05/14 12:39:05;;;;;;;8.10;2.80;;;22.20;76.40;;;;;;4963471;28;20485;-51
2023/05/14 12:41:33;;;;;;;2.93;1.93;;;22.20;76.80;;;;;;4962773;28;20792;-48
2023/05/14 12:44:02;;;;;;;4.13;2.13;;;22.20;77.00;;;;;;4962605;28;20556;-48
2023/05/14 12:46:30;;;;;;;3.03;2.37;;;22.20;77.10;;;;;;4954026;28;20582;-47